Wharton, NJ (07885)

8:53 AM EDT on September 23, 2014 (GMT -0400)
River Place - West Dewey | Change Station
CLOSE
Current Station
Personal Weather Station
Location: Wharton, NJ
Elevation: 667 ft
Nearby Weather Stations

Elev 667 ft 40.90 °N, 74.59 °W | Updated 0 second ago

Clear
Clear
49.9 °F
Feels Like 50 °F
N
0.9
Wind Variable Wind from NW
Gusts 2.0 mph

Today
High -- | Low -- °F
--% Chance of Precip.
Yesterday
High -- | Low -- °F
Precip. -- in
6:46 AM 6:53 PM
Waning Crescent, 1% visible
Pressure 30.30 in
Visibility 10.0 miles
Clouds Clear
Windchill 50 °F
Dew Point 45 °F
Humidity 84%
Rainfall 0.00 in
Snow Depth Not available.
UV 1 out of 12
Pollen 3.10 out of 12
Ozone Good
PM2.5 Good
Flu Activity Not available.
METAR KMMU 231145Z 00000KT 10SM SKC 07/06 A3030

More Conditions Fewer Conditions

Pressure 30.30 in
Visibility 10.0 miles
Clouds Clear
Windchill 50 °F
Dew Point 45 °F
Humidity 84%
Rainfall 0.00 in
Snow Depth Not available.
UV 1 out of 12
Pollen 3.10 out of 12
Ozone Good
PM2.5 Good
Flu Activity Not available.
METAR KMMU 231145Z 00000KT 10SM SKC 07/06 A3030

More Conditions Fewer Conditions

10-Day Weather Forecast

Almanac

Astronomy

Sep. 23, 2014 Rise Set
Actual Time 6:46 AM EDT 6:53 PM EDT
Civil Twilight 6:19 AM EDT 7:21 PM EDT
Nautical Twilight 5:47 AM EDT 7:53 PM EDT
Astronomical Twilight 5:14 AM EDT 8:25 PM EDT
Moon 6:08 AM EDT 6:31 PM EDT
Length of Visible Light 13h 01m
Length of Day
12h 07m
Tomorrow will be 2m 42s shorter.
Waning Crescent, 1% of the Moon is Illuminated
Today
Waning Crescent
Sep 24
New
Oct 1
First Quarter
Oct 8
Full
Oct 15
Last Quarter

Today's Extremes

State Highs State Lows

Community

WunderPhotos

Upload Photos

1,755,662 photos uploaded!

WunderBlogs® & News

Nearby

Air Quality

  Air Quality AQ Index Pollutant
Yesterday Good
PM2.5
Current Good
PM2.5
Current Good
OZONE
Tuesday Good
OZONE
Tuesday Good
PM2.5

Snow Depth

Station Depth Elevation
No new snow has been reported.

Earthquake Activity

City Distance Mag. Time & Date
No recent earthquake activity has been reported nearby.
Minimum magnitude displayed is 2.5.

Coastal Water Temperatures

Place Temperature
No Stations Reporting

Nearby Weather Stations